createdAt,value
2018-12-01T00:00:08.183Z,35.78
2018-12-01T00:02:39.401Z,33.00
2018-12-01T00:05:12.693Z,32.17
2018-12-01T00:07:45.468Z,32.70
2018-12-01T00:10:20.811Z,34.90
2018-12-01T00:12:52.574Z,35.90
2018-12-01T00:15:26.722Z,37.27
2018-12-01T00:17:59.530Z,38.53
2018-12-01T00:20:34.192Z,36.93
2018-12-01T00:23:04.344Z,37.63
2018-12-01T00:25:34.859Z,38.20
2018-12-01T00:28:05.486Z,32.77
2018-12-01T00:30:35.899Z,41.87
2018-12-01T00:33:06.746Z,38.50
2018-12-01T00:35:37.230Z,41.00
2018-12-01T00:38:07.910Z,37.33
2018-12-01T00:40:38.382Z,39.30
2018-12-01T00:43:08.652Z,37.30
2018-12-01T00:45:45.380Z,41.90
2018-12-01T00:48:16.671Z,43.03
2018-12-01T00:50:47.611Z,41.07
2018-12-01T00:53:17.738Z,36.53
2018-12-01T00:55:48.569Z,35.53
2018-12-01T00:58:19.699Z,38.73
2018-12-01T01:00:49.793Z,40.70
2018-12-01T01:03:20.877Z,39.25
2018-12-01T01:05:53.833Z,39.40
2018-12-01T01:08:24.628Z,36.27
2018-12-01T01:10:58.093Z,57.80
2018-12-01T01:13:30.152Z,52.08
2018-12-01T01:16:05.288Z,39.23
2018-12-01T01:18:39.250Z,37.60
2018-12-01T01:21:13.038Z,42.00
2018-12-01T01:23:45.296Z,34.07
2018-12-01T01:26:18.912Z,38.30
2018-12-01T01:28:50.532Z,40.50
2018-12-01T01:31:22.415Z,38.20
2018-12-01T01:33:52.675Z,44.70
2018-12-01T01:36:27.772Z,45.93
2018-12-01T01:38:57.877Z,44.43
2018-12-01T01:41:30.857Z,35.40
2018-12-01T01:44:07.536Z,40.37
2018-12-01T01:46:37.703Z,38.83
2018-12-01T01:49:08.945Z,37.67
2018-12-01T01:51:39.414Z,38.17
2018-12-01T01:54:09.975Z,40.43
2018-12-01T01:56:40.375Z,41.55
2018-12-01T01:59:10.821Z,41.97
2018-12-01T02:01:44.729Z,40.67
2018-12-01T02:04:14.879Z,43.37
2018-12-01T02:06:48.772Z,39.60
2018-12-01T02:09:19.904Z,37.83
2018-12-01T02:11:50.040Z,44.25
2018-12-01T02:14:21.072Z,40.00
2018-12-01T02:16:51.921Z,49.47
2018-12-01T02:19:24.999Z,40.13
2018-12-01T02:21:56.026Z,40.40
2018-12-01T02:24:29.863Z,42.30
2018-12-01T02:26:59.986Z,47.90
2018-12-01T02:29:30.062Z,38.60
2018-12-01T02:32:01.515Z,46.77
2018-12-01T02:34:31.254Z,47.40
2018-12-01T02:37:02.091Z,46.27
2018-12-01T02:39:33.015Z,48.23
2018-12-01T02:42:03.365Z,43.60
2018-12-01T02:44:59.812Z,37.93
2018-12-01T02:47:30.985Z,43.53
2018-12-01T02:50:02.383Z,41.80
2018-12-01T02:52:32.472Z,43.67
2018-12-01T02:55:03.204Z,47.23
2018-12-01T02:57:33.303Z,38.30
2018-12-01T03:00:05.816Z,44.67
2018-12-01T03:02:37.781Z,38.63
2018-12-01T03:05:09.720Z,45.47
2018-12-01T03:07:42.236Z,47.38
2018-12-01T03:10:13.712Z,44.37
2018-12-01T03:12:46.284Z,47.73
2018-12-01T03:15:18.645Z,52.43
2018-12-01T03:17:51.503Z,41.33
2018-12-01T03:20:21.662Z,44.03
2018-12-01T03:22:52.229Z,42.43
2018-12-01T03:25:25.270Z,41.70
2018-12-01T03:27:56.334Z,40.40
2018-12-01T03:30:28.362Z,43.70
2018-12-01T03:32:59.286Z,49.05
2018-12-01T03:35:30.270Z,45.33
2018-12-01T03:38:02.339Z,42.87
2018-12-01T03:40:51.853Z,39.27
2018-12-01T03:43:21.974Z,46.60
2018-12-01T03:45:55.080Z,47.40
2018-12-01T03:48:25.438Z,47.88
2018-12-01T03:50:58.456Z,50.90
2018-12-01T03:53:29.457Z,43.50
2018-12-01T03:55:59.649Z,45.63
2018-12-01T03:58:36.324Z,43.57
2018-12-01T04:01:07.496Z,45.50
2018-12-01T04:03:46.179Z,47.13
2018-12-01T04:06:16.505Z,45.80
2018-12-01T04:08:47.571Z,44.97
2018-12-01T04:11:18.388Z,50.40
2018-12-01T04:13:51.484Z,45.40
2018-12-01T04:16:21.601Z,47.33
2018-12-01T04:18:52.570Z,51.47
2018-12-01T04:21:24.491Z,51.48
2018-12-01T04:24:03.420Z,48.28
2018-12-01T04:26:34.534Z,57.37
2018-12-01T04:29:08.009Z,49.87
2018-12-01T04:31:38.635Z,58.27
2018-12-01T04:34:11.634Z,61.80
2018-12-01T04:36:42.475Z,61.00
2018-12-01T04:39:12.657Z,52.13
2018-12-01T04:41:43.606Z,51.63
2018-12-01T04:44:14.547Z,58.95
2018-12-01T04:46:45.719Z,52.07
2018-12-01T04:49:16.730Z,54.15
2018-12-01T04:51:49.644Z,51.27
2018-12-01T04:54:20.669Z,55.93
2018-12-01T04:56:57.741Z,54.30
2018-12-01T04:59:30.778Z,56.23
2018-12-01T05:02:03.816Z,53.80
2018-12-01T05:04:34.741Z,56.85
2018-12-01T05:07:07.816Z,55.70
2018-12-01T05:09:38.662Z,57.50
2018-12-01T05:12:08.915Z,55.33
2018-12-01T05:14:42.868Z,57.00
2018-12-01T05:17:13.467Z,51.73
2018-12-01T05:19:43.965Z,50.03
2018-12-01T05:22:14.776Z,58.00
2018-12-01T05:24:45.251Z,50.03
2018-12-01T05:27:15.847Z,52.83
2018-12-01T05:29:46.579Z,54.47
2018-12-01T05:32:17.117Z,53.40
2018-12-01T05:34:47.737Z,54.60
2018-12-01T05:37:18.804Z,52.63
2018-12-01T05:39:50.321Z,57.83
2018-12-01T05:42:21.481Z,57.00
2018-12-01T05:44:53.242Z,61.05
2018-12-01T05:47:25.008Z,58.40
2018-12-01T05:50:04.242Z,59.58
2018-12-01T05:52:38.723Z,64.80
2018-12-01T05:55:12.714Z,55.87
2018-12-01T05:57:50.153Z,60.13
2018-12-01T06:00:21.613Z,65.15
2018-12-01T06:02:52.862Z,60.58
2018-12-01T06:05:25.028Z,60.52
2018-12-01T06:07:59.686Z,63.60
2018-12-01T06:10:52.868Z,54.60
2018-12-01T06:13:56.226Z,60.20
2018-12-01T06:17:17.726Z,55.10
2018-12-01T06:47:38.100Z,52.45
2018-12-01T06:50:49.884Z,51.17
2018-12-01T06:53:39.225Z,59.97
2018-12-01T06:56:18.659Z,59.40
2018-12-01T06:58:59.635Z,55.13
2018-12-01T07:01:38.709Z,55.45
2018-12-01T07:04:11.026Z,57.27
2018-12-01T07:06:50.514Z,54.27
2018-12-01T07:09:22.698Z,51.40
2018-12-01T07:11:55.524Z,53.57
2018-12-01T07:14:28.090Z,52.17
2018-12-01T07:16:59.597Z,56.27
2018-12-01T07:19:29.763Z,61.77
2018-12-01T07:22:00.388Z,58.30
2018-12-01T07:24:31.260Z,61.93
2018-12-01T07:27:01.423Z,63.87
2018-12-01T07:29:32.055Z,64.03
2018-12-01T07:32:02.484Z,57.67
2018-12-01T07:34:33.557Z,59.50
2018-12-01T07:37:03.685Z,60.53
2018-12-01T07:39:34.172Z,59.70
2018-12-01T07:42:05.264Z,62.30
2018-12-01T07:44:35.449Z,59.53
2018-12-01T07:47:06.069Z,61.63
2018-12-01T07:49:37.197Z,60.27
2018-12-01T07:52:07.364Z,55.78
2018-12-01T07:54:37.499Z,53.83
2018-12-01T07:57:08.532Z,57.10
2018-12-01T07:59:39.240Z,59.20
2018-12-01T08:02:09.436Z,58.55
2018-12-01T08:04:39.588Z,55.15
2018-12-01T08:07:10.545Z,58.27
2018-12-01T08:09:41.453Z,54.40
2018-12-01T08:12:11.647Z,52.33
2018-12-01T08:14:42.471Z,58.43
2018-12-01T08:17:19.505Z,53.67
2018-12-01T08:19:56.648Z,58.70
2018-12-01T08:22:27.641Z,56.63
2018-12-01T08:25:05.248Z,57.00
2018-12-01T08:27:37.759Z,57.13
2018-12-01T08:30:25.308Z,52.33
2018-12-01T08:32:57.583Z,59.80
2018-12-01T08:35:29.217Z,58.33
2018-12-01T08:38:01.726Z,52.83
2018-12-01T08:40:34.401Z,60.58
2018-12-01T08:43:06.030Z,56.13
2018-12-01T08:45:36.179Z,52.67
2018-12-01T08:48:07.712Z,61.77
2018-12-01T08:50:38.241Z,60.50
2018-12-01T08:53:10.919Z,65.60
2018-12-01T08:55:41.937Z,55.40
2018-12-01T08:58:13.457Z,61.47
2018-12-01T09:00:45.897Z,56.58
2018-12-01T09:03:23.369Z,57.13
2018-12-01T09:05:55.856Z,54.83
2018-12-01T09:08:26.000Z,54.37
2018-12-01T09:11:02.765Z,79.10
2018-12-01T09:13:36.641Z,60.10
2018-12-01T09:16:08.855Z,53.47
2018-12-01T09:18:44.147Z,59.70
2018-12-01T09:21:14.908Z,58.07
2018-12-01T09:23:45.540Z,52.50
2018-12-01T09:26:15.915Z,59.63
2018-12-01T09:28:46.839Z,54.77
2018-12-01T09:31:17.876Z,55.27
2018-12-01T09:33:47.986Z,54.20
2018-12-01T09:36:22.003Z,56.87
2018-12-01T09:38:54.947Z,64.67
2018-12-01T09:41:28.017Z,64.27
2018-12-01T09:43:59.893Z,58.90
2018-12-01T09:46:30.997Z,63.67
2018-12-01T09:49:03.996Z,55.08
2018-12-01T09:51:40.889Z,58.07
2018-12-01T09:54:13.946Z,54.90
2018-12-01T09:56:44.619Z,53.20
2018-12-01T09:59:14.920Z,56.90
2018-12-01T10:01:46.191Z,59.30
2018-12-01T10:04:16.293Z,54.87
2018-12-01T10:06:48.959Z,69.97
2018-12-01T10:09:19.987Z,63.63
2018-12-01T10:11:56.672Z,70.03
2018-12-01T10:14:27.316Z,67.97
2018-12-01T10:16:57.781Z,72.73
2018-12-01T10:19:32.078Z,71.00
2018-12-01T10:22:05.103Z,83.60
2018-12-01T10:24:35.127Z,74.50
2018-12-01T10:27:11.971Z,74.27
2018-12-01T10:29:42.250Z,79.63
2018-12-01T10:32:16.284Z,84.93
2018-12-01T10:34:47.136Z,74.23
2018-12-01T10:37:17.653Z,75.55
2018-12-01T10:39:48.054Z,71.07
2018-12-01T10:42:19.025Z,73.70
2018-12-01T10:44:49.893Z,81.63
2018-12-01T10:47:20.231Z,78.57
2018-12-01T10:49:57.167Z,67.85
2018-12-01T10:52:28.289Z,77.10
2018-12-01T10:55:02.101Z,75.83
2018-12-01T10:57:35.238Z,72.70
2018-12-01T11:00:17.200Z,76.75
2018-12-01T11:02:55.686Z,77.12
2018-12-01T11:05:25.619Z,74.32
2018-12-01T11:07:56.514Z,75.50
2018-12-01T11:10:27.313Z,85.90
2018-12-01T11:12:58.025Z,76.00
2018-12-01T11:15:28.352Z,79.07
2018-12-01T11:17:58.989Z,73.83
2018-12-01T11:20:29.540Z,82.63
2018-12-01T11:23:00.189Z,76.50
2018-12-01T11:25:30.363Z,83.27
2018-12-01T11:28:01.435Z,86.77
2018-12-01T11:30:32.101Z,80.60
2018-12-01T11:33:02.508Z,79.90
2018-12-01T11:35:33.212Z,77.47
2018-12-01T11:38:03.915Z,78.47
2018-12-01T11:40:34.465Z,72.53
2018-12-01T11:43:04.649Z,83.40
2018-12-01T11:45:35.617Z,71.03
2018-12-01T11:48:07.386Z,71.90
2018-12-01T11:50:37.891Z,79.57
2018-12-01T11:53:08.257Z,78.05
2018-12-01T11:55:38.740Z,82.53
2018-12-01T11:58:10.081Z,78.20
2018-12-01T12:00:40.171Z,78.17
2018-12-01T12:03:10.820Z,89.00
2018-12-01T12:05:41.625Z,70.87
2018-12-01T12:08:20.587Z,73.20
2018-12-01T12:10:51.887Z,83.97
2018-12-01T12:13:23.083Z,76.00
2018-12-01T12:15:56.037Z,85.77
2018-12-01T12:18:28.950Z,82.07
2018-12-01T12:20:59.768Z,93.77
2018-12-01T12:23:30.769Z,90.33
2018-12-01T12:26:01.788Z,86.67
2018-12-01T12:28:31.998Z,81.40
2018-12-01T12:31:02.445Z,94.87
2018-12-01T12:33:32.989Z,92.53
2018-12-01T12:36:03.530Z,83.17
2018-12-01T12:38:34.157Z,81.00
2018-12-01T12:41:04.861Z,88.67
2018-12-01T12:43:35.328Z,101.90
2018-12-01T12:46:06.003Z,95.47
2018-12-01T12:48:36.663Z,100.87
2018-12-01T12:51:06.926Z,89.10
2018-12-01T12:53:43.602Z,96.50
2018-12-01T12:56:14.798Z,97.60
2018-12-01T12:58:44.907Z,94.70
2018-12-01T13:01:15.895Z,95.42
2018-12-01T13:03:46.847Z,96.90
2018-12-01T13:06:18.268Z,92.23
2018-12-01T13:08:48.807Z,95.43
2018-12-01T13:11:21.949Z,90.87
2018-12-01T13:13:53.008Z,87.50
2018-12-01T13:16:29.477Z,90.67
2018-12-01T13:19:00.036Z,86.47
2018-12-01T13:21:31.143Z,87.30
2018-12-01T13:24:01.349Z,85.47
2018-12-01T13:26:32.226Z,80.97
2018-12-01T13:29:02.732Z,81.30
2018-12-01T13:31:33.194Z,76.10
2018-12-01T13:34:03.794Z,85.20
2018-12-01T13:36:34.030Z,77.73
2018-12-01T13:39:06.815Z,82.43
2018-12-01T13:41:39.115Z,83.25
2018-12-01T13:44:15.089Z,78.80
2018-12-01T13:46:46.034Z,84.77
2018-12-01T13:49:19.031Z,79.72
2018-12-01T13:51:49.931Z,75.50
2018-12-01T13:54:20.000Z,85.30
2018-12-01T13:56:51.109Z,80.87
2018-12-01T13:59:22.209Z,92.43
2018-12-01T14:01:58.129Z,84.45
2018-12-01T14:04:29.089Z,78.30
2018-12-01T14:06:59.959Z,86.23
2018-12-01T14:09:30.092Z,87.97
2018-12-01T14:12:03.936Z,86.00
2018-12-01T14:14:35.126Z,92.87
2018-12-01T14:17:05.405Z,83.93
2018-12-01T14:19:38.972Z,82.30
2018-12-01T14:22:10.225Z,80.20
2018-12-01T14:24:41.031Z,76.60
2018-12-01T14:27:11.787Z,88.03
2018-12-01T14:29:42.296Z,89.63
2018-12-01T14:32:13.188Z,89.45
2018-12-01T14:34:43.304Z,79.00
2018-12-01T14:37:20.075Z,90.22
2018-12-01T14:39:50.223Z,96.27
2018-12-01T14:42:25.386Z,95.50
2018-12-01T14:44:58.505Z,101.97
2018-12-01T14:47:37.499Z,106.55
2018-12-01T14:50:09.810Z,123.00
2018-12-01T14:52:41.920Z,101.43
2018-12-01T14:55:15.908Z,99.93
2018-12-01T14:57:48.519Z,99.97
2018-12-01T15:00:25.561Z,92.73
2018-12-01T15:02:56.516Z,90.40
2018-12-01T15:05:27.102Z,83.80
2018-12-01T15:08:00.213Z,98.10
2018-12-01T15:10:30.882Z,90.77
2018-12-01T15:13:03.282Z,92.47
2018-12-01T15:15:34.533Z,81.87
2018-12-01T15:18:04.664Z,84.45
2018-12-01T15:20:35.492Z,80.10
2018-12-01T15:23:13.365Z,79.40
2018-12-01T15:25:43.473Z,89.23
2018-12-01T15:28:13.588Z,90.37
2018-12-01T15:30:44.451Z,82.67
2018-12-01T15:33:15.742Z,91.13
2018-12-01T15:35:46.818Z,90.63
2018-12-01T15:38:18.541Z,86.10
2018-12-01T15:40:53.026Z,95.67
2018-12-01T15:43:23.125Z,83.33
2018-12-01T15:45:53.588Z,94.03
2018-12-01T15:48:25.715Z,88.83
2018-12-01T15:50:57.582Z,104.50
2018-12-01T15:53:28.599Z,101.50
2018-12-01T15:55:58.803Z,99.85
2018-12-01T15:58:29.753Z,90.55
2018-12-01T16:00:59.863Z,99.67
2018-12-01T16:03:30.623Z,103.35
2018-12-01T16:06:00.914Z,106.23
2018-12-01T16:08:31.716Z,95.17
2018-12-01T16:11:02.034Z,101.97
2018-12-01T16:13:33.108Z,96.97
2018-12-01T16:16:10.157Z,94.23
2018-12-01T16:18:47.719Z,99.10
2018-12-01T16:21:18.949Z,99.00
2018-12-01T16:23:51.961Z,95.37
2018-12-01T16:26:22.371Z,105.43
2018-12-01T16:28:52.807Z,102.67
2018-12-01T16:31:22.920Z,96.70
2018-12-01T16:33:54.051Z,94.27
2018-12-01T16:36:25.658Z,107.17
2018-12-01T16:38:57.888Z,101.40
2018-12-01T16:41:34.444Z,95.97
2018-12-01T16:44:06.332Z,93.52
2018-12-01T16:46:38.779Z,93.83
2018-12-01T16:49:09.868Z,99.35
2018-12-01T16:51:45.909Z,102.97
2018-12-01T16:54:16.930Z,101.83
2018-12-01T16:56:47.937Z,97.30
2018-12-01T16:59:19.919Z,116.37
2018-12-01T17:01:50.080Z,104.10
2018-12-01T17:04:22.529Z,108.97
2018-12-01T17:06:52.846Z,113.77
2018-12-01T17:09:23.061Z,109.27
2018-12-01T17:11:57.845Z,101.23
2018-12-01T17:14:28.983Z,101.97
2018-12-01T17:17:02.084Z,118.20
2018-12-01T17:19:33.108Z,143.53
2018-12-01T17:22:06.579Z,142.67
2018-12-01T17:24:37.103Z,126.17
2018-12-01T17:27:10.050Z,119.70
2018-12-01T17:29:40.225Z,131.90
2018-12-01T17:32:11.117Z,128.43
2018-12-01T17:34:47.836Z,158.67
2018-12-01T17:37:18.271Z,179.12
2018-12-01T17:39:49.062Z,222.17
2018-12-01T17:42:22.223Z,267.47
2018-12-01T17:44:52.572Z,292.13
2018-12-01T17:47:22.777Z,195.77
2018-12-01T17:49:53.158Z,238.65
2018-12-01T17:52:23.337Z,237.60
2018-12-01T17:54:54.200Z,299.37
2018-12-01T17:57:26.181Z,231.87
2018-12-01T18:00:05.137Z,315.20
2018-12-01T18:02:35.313Z,270.05
2018-12-01T18:05:08.496Z,387.43
2018-12-01T18:07:39.201Z,232.57
2018-12-01T18:10:12.899Z,279.33
2018-12-01T18:12:43.972Z,215.20
2018-12-01T18:15:15.736Z,403.10
2018-12-01T18:17:48.396Z,532.30
2018-12-01T18:20:22.871Z,294.97
2018-12-01T18:22:57.776Z,478.00
2018-12-01T18:25:31.211Z,568.63
2018-12-01T18:28:02.312Z,457.20
2018-12-01T18:30:35.940Z,320.02
2018-12-01T18:33:10.276Z,418.13
2018-12-01T18:35:42.471Z,461.33
2018-12-01T18:38:14.461Z,803.17
2018-12-01T18:40:45.527Z,617.30
2018-12-01T18:43:16.046Z,432.93
2018-12-01T18:45:48.316Z,452.23
2018-12-01T18:48:19.543Z,443.30
2018-12-01T18:50:56.328Z,370.37
2018-12-01T18:53:29.537Z,464.37
2018-12-01T18:56:03.094Z,604.97
2018-12-01T18:58:38.089Z,725.27
2018-12-01T19:01:10.834Z,683.85
2018-12-01T19:03:43.487Z,804.57
2018-12-01T19:06:16.610Z,622.53
2018-12-01T19:08:47.697Z,795.93
2018-12-01T19:11:18.587Z,386.85
2018-12-01T19:13:51.526Z,491.17
2018-12-01T19:16:25.543Z,646.03
2018-12-01T19:18:55.920Z,295.13
2018-12-01T19:21:26.865Z,386.10
2018-12-01T19:24:00.393Z,287.93
2018-12-01T19:26:31.432Z,507.83
2018-12-01T19:29:03.861Z,300.57
2018-12-01T19:31:34.982Z,553.03
2018-12-01T19:34:06.336Z,394.03
2018-12-01T19:36:38.739Z,447.47
2018-12-01T19:39:13.130Z,412.33
2018-12-01T19:41:43.655Z,392.43
2018-12-01T19:44:15.154Z,439.32
2018-12-01T19:46:47.709Z,376.87
2018-12-01T19:49:20.717Z,405.00
2018-12-01T19:51:57.771Z,347.40
2018-12-01T19:54:29.916Z,226.42
2018-12-01T19:57:02.603Z,272.30
2018-12-01T19:59:33.530Z,346.37
2018-12-01T20:02:04.662Z,262.10
2018-12-01T20:04:37.978Z,364.43
2018-12-01T20:07:11.010Z,384.65
2018-12-01T20:09:46.523Z,274.83
2018-12-01T20:12:17.994Z,315.03
2018-12-01T20:14:50.285Z,598.93
2018-12-01T20:17:21.094Z,552.02
2018-12-01T20:19:52.312Z,314.43
2018-12-01T20:22:22.841Z,384.47
2018-12-01T20:24:53.364Z,506.87
2018-12-01T20:27:24.812Z,641.02
2018-12-01T20:30:01.508Z,634.57
2018-12-01T20:32:34.406Z,468.77
2018-12-01T20:35:06.114Z,376.73
2018-12-01T20:37:37.983Z,316.20
2018-12-01T20:40:12.483Z,509.43
2018-12-01T20:42:42.835Z,524.30
2018-12-01T20:45:13.389Z,688.07
2018-12-01T20:47:43.602Z,396.90
2018-12-01T20:50:16.310Z,763.20
2018-12-01T20:52:47.882Z,538.83
2018-12-01T20:55:27.676Z,624.87
2018-12-01T20:57:59.773Z,517.80
2018-12-01T21:00:31.468Z,701.15
2018-12-01T21:03:05.664Z,617.90
2018-12-01T21:05:35.938Z,513.50
2018-12-01T21:08:06.840Z,475.43
2018-12-01T21:10:39.368Z,549.23
2018-12-01T21:13:13.881Z,402.40
2018-12-01T21:15:47.692Z,552.20
2018-12-01T21:18:17.892Z,596.85
2018-12-01T21:20:49.020Z,491.47
2018-12-01T21:23:20.020Z,481.20
2018-12-01T21:25:53.085Z,785.60
2018-12-01T21:28:23.205Z,422.25
2018-12-01T21:30:54.095Z,619.97
2018-12-01T21:33:29.179Z,657.38
2018-12-01T21:36:01.160Z,499.77
2018-12-01T21:38:31.241Z,408.53
2018-12-01T21:41:02.130Z,365.07
2018-12-01T21:43:40.950Z,590.80
2018-12-01T21:46:15.032Z,518.60
2018-12-01T21:48:50.411Z,556.47
2018-12-01T21:51:26.200Z,655.80
2018-12-01T21:53:58.282Z,475.43
2018-12-01T21:56:29.096Z,610.50
2018-12-01T21:58:59.264Z,379.27
2018-12-01T22:01:30.068Z,508.90
2018-12-01T22:04:00.178Z,497.87
2018-12-01T22:06:31.406Z,412.73
2018-12-01T22:09:02.158Z,420.95
2018-12-01T22:11:32.462Z,331.73
2018-12-01T22:14:02.995Z,354.10
2018-12-01T22:16:33.624Z,227.17
2018-12-01T22:19:04.289Z,350.40
2018-12-01T22:21:34.999Z,357.63
2018-12-01T22:24:05.743Z,349.77
2018-12-01T22:26:39.398Z,369.93
2018-12-01T22:29:10.369Z,415.47
2018-12-01T22:31:43.543Z,483.98
2018-12-01T22:34:14.364Z,353.47
2018-12-01T22:36:45.359Z,428.07
2018-12-01T22:39:16.458Z,303.87
2018-12-01T22:41:49.653Z,597.53
2018-12-01T22:44:20.516Z,386.90
2018-12-01T22:46:53.533Z,339.35
2018-12-01T22:49:23.689Z,328.23
2018-12-01T22:51:54.464Z,236.17
2018-12-01T22:54:28.183Z,354.43
2018-12-01T22:56:58.331Z,262.70
2018-12-01T22:59:29.175Z,258.20
2018-12-01T23:01:59.676Z,234.80
2018-12-01T23:04:30.062Z,304.95
2018-12-01T23:07:00.750Z,284.67
2018-12-01T23:09:31.238Z,328.60
2018-12-01T23:12:01.469Z,292.60
2018-12-01T23:14:32.315Z,244.67
2018-12-01T23:17:02.552Z,244.30
2018-12-01T23:19:32.641Z,363.00
2018-12-01T23:22:09.458Z,227.17
2018-12-01T23:24:40.705Z,217.23
2018-12-01T23:27:11.676Z,277.15
2018-12-01T23:29:41.822Z,208.80
2018-12-01T23:32:14.693Z,174.23
2018-12-01T23:34:45.499Z,171.53
2018-12-01T23:37:16.596Z,241.38
2018-12-01T23:39:47.421Z,207.40
2018-12-01T23:42:17.655Z,181.17
2018-12-01T23:44:51.448Z,229.30
2018-12-01T23:47:21.775Z,209.85
2018-12-01T23:49:52.607Z,287.08
2018-12-01T23:52:22.848Z,262.37
2018-12-01T23:54:53.627Z,285.50
2018-12-01T23:57:24.030Z,236.18
2018-12-01T23:59:55.783Z,206.82
